Time;durP1;ratioP1;P1;durP2;ratioP2;P2;SDS_P1;SDS_P2;PMS_P1;PMS_P2;Temp;Humidity;BMP_temperature;BMP_pressure;BME280_temperature;BME280_humidity;BME280_pressure;Samples;Min_cycle;Max_cycle;Signal;HPM_P1;HPM_P2
2021/06/13 00:01:36;;;;;;;1999.90;999.90;;;;;;;13.97;100.00;95714.75;5131086;27;20197;-63
2021/06/13 00:04:04;;;;;;;1999.90;999.90;;;;;;;13.92;100.00;95716.75;5131465;27;20582;-63
2021/06/13 00:06:31;;;;;;;1999.90;999.90;;;;;;;13.79;100.00;95708.03;5131392;27;20206;-63
2021/06/13 00:08:58;;;;;;;1999.90;999.90;;;;;;;13.78;100.00;95709.09;5130839;27;20226;-63
2021/06/13 00:11:25;;;;;;;1999.90;999.90;;;;;;;13.65;100.00;95707.38;5131181;27;20243;-63
2021/06/13 00:13:52;;;;;;;1999.90;999.90;;;;;;;13.59;100.00;95712.00;5131181;27;20230;-63
2021/06/13 00:16:20;;;;;;;1999.90;999.90;;;;;;;13.53;100.00;95710.63;5130858;27;20228;-63
2021/06/13 00:18:48;;;;;;;1999.90;999.90;;;;;;;13.45;100.00;95708.00;5130874;27;20190;-63
2021/06/13 00:21:15;;;;;;;1999.90;999.90;;;;;;;13.35;100.00;95699.38;5131089;27;20187;-62
2021/06/13 00:23:43;;;;;;;1999.90;999.90;;;;;;;13.43;100.00;95700.47;5131127;28;20301;-64
2021/06/13 00:26:10;;;;;;;1999.90;999.90;;;;;;;13.49;100.00;95703.69;5130856;28;20190;-62
2021/06/13 00:28:37;;;;;;;1999.90;999.90;;;;;;;13.47;100.00;95706.59;5131056;28;20679;-63
2021/06/13 00:31:05;;;;;;;1999.90;999.90;;;;;;;13.42;100.00;95705.97;5130756;28;20272;-63
2021/06/13 00:33:31;;;;;;;1999.90;999.90;;;;;;;13.29;100.00;95705.84;5130791;28;20205;-64
2021/06/13 00:36:00;;;;;;;1999.90;999.90;;;;;;;13.38;100.00;95695.41;5130743;28;20218;-64
2021/06/13 00:38:27;;;;;;;1999.90;999.90;;;;;;;13.35;100.00;95698.59;5130744;28;20191;-63
2021/06/13 00:40:54;;;;;;;1999.90;999.90;;;;;;;13.38;100.00;95698.00;5130735;28;20194;-64
2021/06/13 00:43:20;;;;;;;1999.90;999.90;;;;;;;13.40;100.00;95697.72;5130596;28;20195;-63
2021/06/13 00:45:47;;;;;;;1999.90;999.90;;;;;;;13.44;100.00;95696.03;5131206;28;20204;-63
2021/06/13 00:48:14;;;;;;;1999.90;999.90;;;;;;;13.41;100.00;95694.78;5130785;28;20194;-63
2021/06/13 00:50:44;;;;;;;1999.90;999.90;;;;;;;13.31;100.00;95688.00;5130993;28;20234;-63
2021/06/13 00:53:12;;;;;;;1999.90;999.90;;;;;;;13.29;100.00;95686.78;5130523;28;20210;-63
2021/06/13 00:55:39;;;;;;;1999.90;999.90;;;;;;;13.32;100.00;95683.56;5130498;28;20230;-63
2021/06/13 00:58:07;;;;;;;1999.90;999.90;;;;;;;13.36;100.00;95685.25;5130687;28;20186;-63
2021/06/13 01:00:35;;;;;;;1999.90;999.90;;;;;;;13.24;100.00;95679.09;5130695;28;20251;-63
2021/06/13 01:03:02;;;;;;;1999.90;999.90;;;;;;;13.33;100.00;95677.25;5130798;28;20203;-63
2021/06/13 01:05:29;;;;;;;1999.90;999.90;;;;;;;13.21;100.00;95679.69;5130570;28;20600;-63
2021/06/13 01:08:05;;;;;;;1999.90;999.90;;;;;;;13.22;100.00;95678.63;5130610;28;20297;-63
2021/06/13 01:10:42;;;;;;;1999.90;999.90;;;;;;;13.22;100.00;95678.63;5132960;27;20237;-63
2021/06/13 01:13:17;;;;;;;1999.90;999.90;;;;;;;13.12;100.00;95678.91;5135055;27;20216;-63
2021/06/13 01:15:57;;;;;;;1999.90;999.90;;;;;;;13.07;100.00;95674.59;5134412;27;20222;-64
2021/06/13 01:18:29;;;;;;;1999.90;999.90;;;;;;;13.01;100.00;95673.19;5134333;27;20191;-63
2021/06/13 01:21:03;;;;;;;1999.90;999.90;;;;;;;12.92;100.00;95672.41;5134326;27;20191;-63
2021/06/13 01:23:50;;;;;;;1999.90;999.90;;;;;;;12.90;100.00;95672.69;5134508;27;20541;-63
2021/06/13 01:26:55;;;;;;;1999.90;999.90;;;;;;;12.79;100.00;95681.13;5134196;27;20338;-63
2021/06/13 01:29:27;;;;;;;1999.90;999.90;;;;;;;12.67;100.00;95684.28;5134014;27;20194;-63
2021/06/13 01:31:57;;;;;;;1999.90;999.90;;;;;;;12.61;100.00;95682.09;5134333;27;20195;-62
2021/06/13 01:34:27;;;;;;;1999.90;999.90;;;;;;;12.68;100.00;95678.00;5134045;27;20226;-63
2021/06/13 01:36:55;;;;;;;1999.90;999.90;;;;;;;12.69;100.00;95676.16;5133938;27;20222;-63
2021/06/13 01:39:27;;;;;;;1999.90;999.90;;;;;;;12.69;100.00;95663.91;5133966;27;20547;-63
2021/06/13 01:41:57;;;;;;;1999.90;999.90;;;;;;;12.64;100.00;95674.47;5133920;27;20199;-61
2021/06/13 01:44:27;;;;;;;1999.90;999.90;;;;;;;12.53;100.00;95675.78;5133819;27;20684;-63
2021/06/13 01:46:55;;;;;;;1999.90;999.90;;;;;;;12.48;100.00;95675.94;5133726;27;20195;-63
2021/06/13 01:49:23;;;;;;;1999.90;999.90;;;;;;;12.48;100.00;95671.47;5133661;27;20679;-64
2021/06/13 01:51:50;;;;;;;1999.90;999.90;;;;;;;12.39;100.00;95669.91;5133695;27;20194;-63
2021/06/13 01:54:18;;;;;;;1999.90;999.90;;;;;;;12.41;100.00;95672.97;5133667;27;20195;-63
2021/06/13 01:56:49;;;;;;;1999.90;999.90;;;;;;;12.42;100.00;95667.47;5133779;27;20227;-63
2021/06/13 01:59:17;;;;;;;1999.90;999.90;;;;;;;12.52;100.00;95669.03;5133520;27;20222;-63
2021/06/13 02:01:46;;;;;;;1999.90;999.90;;;;;;;12.55;100.00;95665.84;5133395;27;20199;-63
2021/06/13 02:04:14;;;;;;;1999.90;999.90;;;;;;;12.48;100.00;95665.50;5133411;27;20200;-63
2021/06/13 02:06:46;;;;;;;1999.90;999.90;;;;;;;12.46;100.00;95665.03;5133399;27;20191;-63
2021/06/13 02:09:15;;;;;;;1999.90;999.90;;;;;;;12.48;100.00;95665.50;5133309;27;20309;-63
2021/06/13 02:11:45;;;;;;;1999.90;999.90;;;;;;;12.45;100.00;95659.03;5133208;27;20195;-64
2021/06/13 02:14:13;;;;;;;1999.90;999.90;;;;;;;12.45;100.00;95655.69;5133548;27;20214;-64
2021/06/13 02:16:42;;;;;;;1999.90;999.90;;;;;;;12.46;100.00;95649.38;5133117;27;20631;-64
2021/06/13 02:19:12;;;;;;;1999.90;999.90;;;;;;;12.30;100.00;95663.91;5133064;27;20186;-64
2021/06/13 02:21:43;;;;;;;1999.90;999.90;;;;;;;12.34;100.00;95654.41;5132536;27;20218;-64
2021/06/13 02:24:10;;;;;;;1999.90;999.90;;;;;;;12.42;100.00;95654.44;5133291;27;20281;-62
2021/06/13 02:26:40;;;;;;;1999.90;999.90;;;;;;;12.49;100.00;95656.63;5133180;27;20241;-63
2021/06/13 02:29:10;;;;;;;1999.90;999.90;;;;;;;12.64;100.00;95653.59;5132978;27;20202;-63
2021/06/13 02:31:41;;;;;;;1999.90;999.90;;;;;;;12.74;100.00;95644.75;5132905;27;20194;-63
2021/06/13 02:34:10;;;;;;;1999.90;999.90;;;;;;;12.74;100.00;95648.13;5133153;27;20195;-62
2021/06/13 02:36:38;;;;;;;1999.90;999.90;;;;;;;12.77;100.00;95652.72;5132685;27;20230;-63
2021/06/13 02:39:06;;;;;;;1999.90;999.90;;;;;;;12.78;100.00;95656.88;5132756;27;20277;-63
2021/06/13 02:41:35;;;;;;;1999.90;999.90;;;;;;;12.77;100.00;95657.16;5132839;27;20194;-63
2021/06/13 02:44:02;;;;;;;1999.90;999.90;;;;;;;12.74;100.00;95649.97;5132475;27;20636;-63
2021/06/13 02:46:29;;;;;;;1999.90;999.90;;;;;;;12.75;100.00;95652.25;5132626;27;20223;-63
2021/06/13 02:48:55;;;;;;;1999.90;999.90;;;;;;;12.49;100.00;95652.19;5132937;27;20195;-64
2021/06/13 02:51:32;;;;;;;1999.90;999.90;;;;;;;12.41;100.00;95652.13;5132542;27;20194;-63
2021/06/13 02:54:04;;;;;;;1999.90;999.90;;;;;;;12.46;100.00;95651.97;5132464;27;20229;-63
2021/06/13 02:56:34;;;;;;;1999.90;999.90;;;;;;;12.36;100.00;95649.66;5132338;27;20278;-63
2021/06/13 02:59:13;;;;;;;1999.90;999.90;;;;;;;12.33;100.00;95645.03;5132364;27;20214;-63
2021/06/13 03:01:44;;;;;;;1999.90;999.90;;;;;;;12.33;100.00;95652.84;5132700;27;20296;-64
2021/06/13 03:04:11;;;;;;;1999.90;999.90;;;;;;;12.40;100.00;95648.75;5132354;27;20194;-64
2021/06/13 03:06:40;;;;;;;1999.90;999.90;;;;;;;12.53;100.00;95647.13;5132174;27;20195;-64
2021/06/13 03:09:07;;;;;;;1999.90;999.90;;;;;;;12.59;100.00;95645.16;5131931;27;20226;-64
2021/06/13 03:11:34;;;;;;;1999.90;999.90;;;;;;;12.64;100.00;95640.56;5132090;27;20238;-63
2021/06/13 03:14:02;;;;;;;1999.90;999.90;;;;;;;12.61;100.00;95643.75;5132187;27;20198;-63
2021/06/13 03:16:31;;;;;;;1999.90;999.90;;;;;;;12.59;100.00;95643.31;5132124;27;20714;-63
2021/06/13 03:18:59;;;;;;;1999.90;999.90;;;;;;;12.64;100.00;95643.19;5132002;27;20220;-63
2021/06/13 03:21:28;;;;;;;1999.90;999.90;;;;;;;12.69;100.00;95642.28;5131965;27;20555;-63
2021/06/13 03:23:57;;;;;;;1999.90;999.90;;;;;;;12.73;100.00;95646.56;5131787;27;20202;-63
2021/06/13 03:26:26;;;;;;;1999.90;999.90;;;;;;;12.76;100.00;95648.56;5131863;27;20190;-64
2021/06/13 03:28:56;;;;;;;1999.90;999.90;;;;;;;12.79;100.00;95657.63;5131752;27;20563;-64
2021/06/13 03:31:23;;;;;;;1999.90;999.90;;;;;;;12.80;100.00;95657.31;5131552;27;20651;-63
2021/06/13 03:33:53;;;;;;;1999.90;999.90;;;;;;;12.84;100.00;95654.91;5131367;27;20194;-64
2021/06/13 03:36:21;;;;;;;1999.90;999.90;;;;;;;12.94;100.00;95662.44;5131508;27;20342;-64
2021/06/13 03:38:52;;;;;;;1999.90;999.90;;;;;;;12.82;100.00;95659.63;5131693;27;20190;-64
2021/06/13 03:41:24;;;;;;;1999.90;999.90;;;;;;;12.74;100.00;95661.16;5131668;27;20209;-63
2021/06/13 03:43:52;;;;;;;1999.90;999.90;;;;;;;12.82;100.00;95655.19;5131389;27;20198;-64
2021/06/13 03:46:20;;;;;;;1999.90;999.90;;;;;;;12.87;100.00;95652.44;5131295;27;20200;-64
2021/06/13 03:48:50;;;;;;;1999.90;999.90;;;;;;;12.83;100.00;95646.31;5131128;27;20194;-63
2021/06/13 03:51:18;;;;;;;1999.90;999.90;;;;;;;12.88;100.00;95648.78;5131046;27;20198;-63
2021/06/13 03:53:54;;;;;;;1999.90;999.90;;;;;;;12.91;100.00;95652.59;5131010;27;20197;-63
2021/06/13 03:56:25;;;;;;;1999.90;999.90;;;;;;;13.01;100.00;95651.53;5131043;27;20226;-63
2021/06/13 03:58:53;;;;;;;1999.90;999.90;;;;;;;13.00;100.00;95650.03;5131126;27;20256;-63
2021/06/13 04:01:23;;;;;;;1999.90;999.90;;;;;;;13.16;100.00;95649.28;5130760;27;20194;-62
2021/06/13 04:03:52;;;;;;;1999.90;999.90;;;;;;;13.24;100.00;95647.78;5131230;27;20738;-63
2021/06/13 04:06:21;;;;;;;1999.90;999.90;;;;;;;13.42;100.00;95644.09;5130903;27;20205;-63
2021/06/13 04:08:49;;;;;;;1999.90;999.90;;;;;;;13.49;100.00;95631.38;5130843;27;20268;-63
2021/06/13 04:11:18;;;;;;;1999.90;999.90;;;;;;;13.60;100.00;95629.97;5130854;27;20195;-63
2021/06/13 04:13:48;;;;;;;1999.90;999.90;;;;;;;13.77;100.00;95631.81;5130760;27;20202;-63
2021/06/13 04:16:18;;;;;;;1999.90;999.90;;;;;;;13.88;100.00;95642.69;5131062;27;20360;-63
2021/06/13 04:18:45;;;;;;;1999.90;999.90;;;;;;;14.04;100.00;95646.38;5131018;27;20186;-63
2021/06/13 04:21:15;;;;;;;1999.90;999.90;;;;;;;13.96;100.00;95634.84;5130931;27;20218;-63
2021/06/13 04:23:44;;;;;;;1999.90;999.90;;;;;;;13.90;100.00;95636.06;5130861;27;20186;-63
2021/06/13 04:26:14;;;;;;;1999.90;999.90;;;;;;;13.85;100.00;95635.50;5130893;28;20618;-63
2021/06/13 04:28:41;;;;;;;1999.90;999.90;;;;;;;13.93;100.00;95632.09;5130857;28;20197;-63
2021/06/13 04:31:13;;;;;;;1999.90;999.90;;;;;;;13.98;100.00;95639.75;5130684;28;20206;-63
2021/06/13 04:33:41;;;;;;;1999.90;999.90;;;;;;;14.09;100.00;95635.75;5130677;28;20203;-63
2021/06/13 04:36:10;;;;;;;1999.90;999.90;;;;;;;14.30;100.00;95641.81;5130558;28;20198;-63
2021/06/13 04:38:38;;;;;;;1999.90;999.90;;;;;;;14.23;100.00;95644.94;5130654;28;20240;-63
2021/06/13 04:41:06;;;;;;;1999.90;999.90;;;;;;;14.26;100.00;95638.28;5130585;28;20201;-63
2021/06/13 04:43:35;;;;;;;1999.90;999.90;;;;;;;14.39;100.00;95641.84;5130829;27;20198;-63
2021/06/13 04:46:02;;;;;;;1999.90;999.90;;;;;;;14.47;100.00;95631.34;5134853;27;20195;-63
2021/06/13 04:48:31;;;;;;;1999.90;999.90;;;;;;;14.51;100.00;95645.31;5134921;27;20586;-63
2021/06/13 04:51:02;;;;;;;1999.90;999.90;;;;;;;14.38;100.00;95650.75;5134886;27;20204;-63
2021/06/13 04:53:52;;;;;;;1999.90;999.90;;;;;;;14.54;100.00;95646.56;5134879;27;20198;-63
2021/06/13 04:56:29;;;;;;;1999.90;999.90;;;;;;;14.65;100.00;95650.31;5135303;27;20242;-63
2021/06/13 04:58:57;;;;;;;1999.90;999.90;;;;;;;14.54;100.00;95649.94;5135160;27;20221;-63
2021/06/13 05:01:24;;;;;;;1999.90;999.90;;;;;;;14.61;100.00;95649.44;5134769;27;20529;-63
2021/06/13 05:03:54;;;;;;;1999.90;999.90;;;;;;;14.65;100.00;95652.94;5134772;27;20246;-63
2021/06/13 05:06:21;;;;;;;1999.90;999.90;;;;;;;14.64;100.00;95654.78;5134782;27;20202;-63
2021/06/13 05:08:49;;;;;;;1999.90;999.90;;;;;;;14.69;100.00;95645.25;5134456;27;20234;-63
2021/06/13 05:11:17;;;;;;;1999.90;999.90;;;;;;;14.53;100.00;95643.16;5134517;27;20199;-63
2021/06/13 05:13:46;;;;;;;1999.90;999.90;;;;;;;14.72;100.00;95640.16;5134438;27;20657;-64
2021/06/13 05:16:13;;;;;;;1999.90;999.90;;;;;;;14.77;100.00;95644.44;5134236;27;20241;-63
2021/06/13 05:18:40;;;;;;;1999.90;999.90;;;;;;;14.84;100.00;95636.88;5134465;27;20228;-64
2021/06/13 05:21:09;;;;;;;1999.90;999.90;;;;;;;14.94;100.00;95631.28;5134210;27;20186;-62
2021/06/13 05:23:36;;;;;;;1999.90;999.90;;;;;;;15.05;100.00;95629.81;5134285;27;20191;-63
2021/06/13 05:26:04;;;;;;;1999.90;999.90;;;;;;;15.30;100.00;95639.34;5134195;27;20238;-63
2021/06/13 05:28:32;;;;;;;1999.90;999.90;;;;;;;15.47;100.00;95639.22;5134138;27;20194;-64
2021/06/13 05:30:59;;;;;;;1999.90;999.90;;;;;;;15.55;100.00;95629.00;5134150;27;20202;-63
2021/06/13 05:33:26;;;;;;;1999.90;999.90;;;;;;;15.69;100.00;95632.88;5134281;27;20191;-64
2021/06/13 05:35:54;;;;;;;1999.90;999.90;;;;;;;15.62;100.00;95627.41;5134141;27;20194;-64
2021/06/13 05:38:22;;;;;;;1999.90;999.90;;;;;;;15.78;100.00;95627.59;5134066;27;20238;-63
2021/06/13 05:40:50;;;;;;;1999.90;999.90;;;;;;;15.98;100.00;95624.16;5133965;27;20213;-63
2021/06/13 05:43:18;;;;;;;1999.90;999.90;;;;;;;16.13;100.00;95635.88;5133730;27;20199;-63
2021/06/13 05:45:45;;;;;;;1999.90;999.90;;;;;;;16.08;100.00;95636.84;5134134;27;20236;-63
2021/06/13 05:48:13;;;;;;;1999.90;999.90;;;;;;;16.16;100.00;95638.63;5133804;27;20611;-63
2021/06/13 05:50:41;;;;;;;1999.90;999.90;;;;;;;16.21;100.00;95625.28;5134401;27;20205;-63
2021/06/13 05:53:09;;;;;;;1999.90;999.90;;;;;;;16.38;100.00;95626.97;5133699;27;20407;-63
2021/06/13 05:55:38;;;;;;;1999.90;999.90;;;;;;;16.48;100.00;95620.53;5132852;27;20207;-62
2021/06/13 05:58:06;;;;;;;1999.90;999.90;;;;;;;16.56;100.00;95622.28;5133084;27;20225;-63
2021/06/13 06:00:34;;;;;;;1999.90;999.90;;;;;;;16.76;100.00;95634.53;5133627;27;20218;-62
2021/06/13 06:03:02;;;;;;;1999.90;999.90;;;;;;;16.83;100.00;95629.53;5133473;27;20194;-63
2021/06/13 06:05:31;;;;;;;1999.90;999.90;;;;;;;16.72;100.00;95628.44;5133620;27;20190;-63
2021/06/13 06:07:58;;;;;;;1999.90;999.90;;;;;;;16.72;100.00;95631.06;5133417;27;20696;-63
2021/06/13 06:10:28;;;;;;;1999.90;999.90;;;;;;;16.82;100.00;95638.50;5133453;27;20230;-63
2021/06/13 06:13:00;;;;;;;1999.90;999.90;;;;;;;16.86;100.00;95641.97;5133342;27;20220;-63
2021/06/13 06:15:31;;;;;;;1999.90;999.90;;;;;;;16.87;100.00;95635.66;5133253;27;20197;-63
2021/06/13 06:17:58;;;;;;;1999.90;999.90;;;;;;;16.97;100.00;95644.94;5133086;27;20604;-63
2021/06/13 06:20:27;;;;;;;1999.90;999.90;;;;;;;17.16;100.00;95643.28;5133168;27;20191;-63
2021/06/13 06:22:56;;;;;;;1999.90;999.90;;;;;;;17.51;100.00;95642.75;5133014;27;20201;-63
2021/06/13 06:25:24;;;;;;;1999.90;999.90;;;;;;;17.75;100.00;95636.66;5133294;27;20201;-63
2021/06/13 06:27:52;;;;;;;1999.90;999.90;;;;;;;18.22;99.66;95628.88;5133288;27;20237;-63
2021/06/13 06:30:22;;;;;;;1999.90;999.90;;;;;;;18.33;99.33;95637.81;5132919;27;20199;-63
2021/06/13 06:32:50;;;;;;;1999.90;999.90;;;;;;;18.68;100.00;95620.22;5132962;27;20198;-63
2021/06/13 06:35:18;;;;;;;1999.90;999.90;;;;;;;18.96;94.94;95630.66;5132850;27;20190;-63
2021/06/13 06:37:46;;;;;;;1999.90;999.90;;;;;;;18.98;97.12;95619.78;5133006;27;20226;-63
2021/06/13 06:40:15;;;;;;;1999.90;999.90;;;;;;;19.10;96.21;95630.19;5132965;27;20190;-61
2021/06/13 06:42:43;;;;;;;1999.90;999.90;;;;;;;19.10;95.21;95624.94;5132732;27;20230;-63
2021/06/13 06:45:13;;;;;;;1999.90;999.90;;;;;;;18.80;94.06;95620.16;5132833;27;20194;-63
2021/06/13 06:47:43;;;;;;;1999.90;999.90;;;;;;;19.05;95.28;95612.03;5132723;27;20226;-61
2021/06/13 06:50:12;;;;;;;1999.90;999.90;;;;;;;19.56;89.38;95618.78;5132439;27;20195;-62
2021/06/13 06:52:39;;;;;;;1999.90;999.90;;;;;;;19.86;90.77;95618.19;5132836;27;20228;-64
2021/06/13 06:55:08;;;;;;;1999.90;999.90;;;;;;;19.68;89.00;95623.13;5132502;27;20216;-63
2021/06/13 06:57:37;;;;;;;1999.90;999.90;;;;;;;19.80;91.26;95607.16;5132415;27;20226;-62
2021/06/13 07:00:06;;;;;;;1999.90;999.90;;;;;;;19.84;87.90;95615.91;5132327;27;20214;-63
2021/06/13 07:02:35;;;;;;;1999.90;999.90;;;;;;;20.00;87.83;95607.91;5132239;27;20270;-63
2021/06/13 07:05:04;;;;;;;1999.90;999.90;;;;;;;19.94;87.58;95609.28;5132532;27;20202;-63
2021/06/13 07:07:31;;;;;;;1999.90;999.90;;;;;;;19.94;88.39;95607.41;5132206;27;20226;-63
2021/06/13 07:09:59;;;;;;;1999.90;999.90;;;;;;;19.88;89.07;95608.03;5132093;27;20253;-63
2021/06/13 07:12:26;;;;;;;1999.90;999.90;;;;;;;19.95;89.09;95595.00;5132109;27;20205;-62
2021/06/13 07:14:53;;;;;;;1999.90;999.90;;;;;;;19.83;90.33;95590.63;5131910;27;20197;-63
2021/06/13 07:17:20;;;;;;;1999.90;999.90;;;;;;;19.65;91.99;95592.19;5131947;27;20230;-61
2021/06/13 07:19:48;;;;;;;1999.90;999.90;;;;;;;19.92;90.64;95590.44;5131987;27;20196;-63
2021/06/13 07:22:16;;;;;;;1999.90;999.90;;;;;;;19.95;90.87;95595.75;5132079;27;20186;-63
2021/06/13 07:24:44;;;;;;;1999.90;999.90;;;;;;;19.99;90.93;95587.91;5131903;27;20681;-62
2021/06/13 07:27:11;;;;;;;1999.90;999.90;;;;;;;20.16;89.78;95590.09;5131802;27;20225;-63
2021/06/13 07:29:39;;;;;;;1999.90;999.90;;;;;;;20.24;87.96;95591.72;5131721;27;20599;-63
2021/06/13 07:32:06;;;;;;;1999.90;999.90;;;;;;;20.11;90.98;95583.25;5131720;27;20560;-62
2021/06/13 07:34:34;;;;;;;1999.90;999.90;;;;;;;20.15;88.78;95578.00;5131874;27;20196;-63
2021/06/13 07:37:03;;;;;;;1999.90;999.90;;;;;;;20.15;88.37;95578.78;5131597;27;20197;-63
2021/06/13 07:39:32;;;;;;;1999.90;999.90;;;;;;;20.13;89.34;95574.94;5131630;27;20338;-63
2021/06/13 07:41:59;;;;;;;1999.90;999.90;;;;;;;20.21;88.98;95579.25;5131611;27;20589;-62
2021/06/13 07:44:27;;;;;;;1999.90;999.90;;;;;;;20.28;89.28;95575.94;5131742;27;20198;-63
2021/06/13 07:46:56;;;;;;;1999.90;999.90;;;;;;;20.36;91.79;95577.63;5131437;27;20201;-61
2021/06/13 07:49:23;;;;;;;1999.90;999.90;;;;;;;20.40;91.59;95576.56;5131552;27;20194;-63
2021/06/13 07:51:52;;;;;;;1999.90;999.90;;;;;;;20.64;89.85;95575.41;5131783;27;20213;-62
2021/06/13 07:54:19;;;;;;;1999.90;999.90;;;;;;;20.73;88.95;95580.44;5131333;27;20694;-63
2021/06/13 07:56:48;;;;;;;1999.90;999.90;;;;;;;20.93;89.32;95587.13;5131182;27;20190;-64
2021/06/13 07:59:16;;;;;;;1999.90;999.90;;;;;;;21.16;83.52;95589.75;5131269;27;20222;-63
2021/06/13 08:01:43;;;;;;;1999.90;999.90;;;;;;;21.73;80.23;95585.88;5131452;27;20226;-63
2021/06/13 08:04:10;;;;;;;1999.90;999.90;;;;;;;22.17;78.51;95585.97;5131282;27;20558;-64
2021/06/13 08:06:38;;;;;;;1999.90;999.90;;;;;;;22.36;77.23;95583.13;5131182;27;20198;-63
2021/06/13 08:09:06;;;;;;;1999.90;999.90;;;;;;;22.46;73.76;95592.28;5131037;27;20245;-62
2021/06/13 08:11:33;;;;;;;1999.90;999.90;;;;;;;22.42;75.89;95584.28;5131145;27;20255;-62
2021/06/13 08:14:02;;;;;;;1999.90;999.90;;;;;;;22.53;77.34;95587.03;5131053;27;20195;-63
2021/06/13 08:16:30;;;;;;;1999.90;999.90;;;;;;;22.24;76.97;95586.78;5131299;27;20195;-63
2021/06/13 08:18:57;;;;;;;1999.90;999.90;;;;;;;22.00;75.29;95586.56;5130444;27;20671;-63
2021/06/13 08:21:24;;;;;;;1999.90;999.90;;;;;;;21.82;76.21;95587.13;5130962;27;20194;-63
2021/06/13 08:23:51;;;;;;;1999.90;999.90;;;;;;;21.76;76.76;95582.53;5131047;27;20226;-63
2021/06/13 08:26:19;;;;;;;1999.90;999.90;;;;;;;21.56;78.06;95573.25;5130948;28;20196;-63
2021/06/13 08:28:46;;;;;;;1999.90;999.90;;;;;;;21.53;77.73;95584.53;5131233;28;20255;-63
2021/06/13 08:31:15;;;;;;;1999.90;999.90;;;;;;;21.15;77.87;95570.50;5130874;28;20197;-63
2021/06/13 08:33:42;;;;;;;1999.90;999.90;;;;;;;21.18;77.87;95572.41;5130869;28;20703;-63
2021/06/13 08:36:09;;;;;;;1999.90;999.90;;;;;;;21.23;80.69;95581.91;5130936;28;20682;-63
2021/06/13 08:38:37;;;;;;;1999.90;999.90;;;;;;;21.03;79.95;95586.53;5130935;28;20380;-63
2021/06/13 08:41:07;;;;;;;1999.90;999.90;;;;;;;20.76;79.80;95585.03;5131011;28;20217;-63
2021/06/13 08:43:35;;;;;;;1999.90;999.90;;;;;;;20.50;79.64;95578.59;5130994;28;20216;-64
2021/06/13 08:46:05;;;;;;;1999.90;999.90;;;;;;;20.49;80.67;95587.63;5130894;28;20226;-63
2021/06/13 08:48:34;;;;;;;1999.90;999.90;;;;;;;20.41;79.31;95587.88;5130859;28;20194;-63
2021/06/13 08:51:03;;;;;;;1999.90;999.90;;;;;;;20.08;81.57;95588.44;5130567;28;20561;-63
2021/06/13 08:53:30;;;;;;;1999.90;999.90;;;;;;;20.17;82.96;95578.44;5130882;28;20213;-61
2021/06/13 08:55:58;;;;;;;1999.90;999.90;;;;;;;20.09;82.95;95582.03;5131276;28;20248;-62
2021/06/13 08:58:27;;;;;;;1999.90;999.90;;;;;;;20.09;83.34;95587.31;5130485;28;20316;-63
2021/06/13 09:00:55;;;;;;;1999.90;999.90;;;;;;;20.23;84.37;95584.16;5130666;28;20666;-63
2021/06/13 09:03:22;;;;;;;1999.90;999.90;;;;;;;20.15;82.83;95593.84;5130572;28;20237;-63
2021/06/13 09:05:51;;;;;;;1999.90;999.90;;;;;;;19.99;82.81;95590.53;5130680;28;20191;-63
2021/06/13 09:08:19;;;;;;;1999.90;999.90;;;;;;;19.74;85.14;95590.09;5130485;28;20191;-62
2021/06/13 09:10:48;;;;;;;1999.90;999.90;;;;;;;19.75;85.21;95605.59;5130146;28;20780;-63
2021/06/13 09:13:19;;;;;;;1999.90;999.90;;;;;;;19.56;87.54;95605.59;5130398;28;20194;-63
2021/06/13 09:15:49;;;;;;;1999.90;999.90;;;;;;;19.40;88.90;95612.78;5130821;28;20186;-63
2021/06/13 09:18:30;;;;;;;1999.90;999.90;;;;;;;19.08;92.72;95627.16;5130420;28;20229;-63
2021/06/13 09:20:58;;;;;;;1999.90;999.90;;;;;;;18.74;94.01;95624.16;5130393;28;20273;-63
2021/06/13 09:23:29;;;;;;;1999.90;999.90;;;;;;;18.42;97.40;95619.97;5130572;28;20190;-62
2021/06/13 09:26:01;;;;;;;1999.90;999.90;;;;;;;18.22;97.82;95618.38;5130771;28;20194;-63
2021/06/13 09:28:31;;;;;;;1999.90;999.90;;;;;;;18.15;100.00;95610.28;5130341;28;20221;-62
2021/06/13 09:30:58;;;;;;;1999.90;999.90;;;;;;;18.04;100.00;95617.91;5131847;27;20665;-62
2021/06/13 09:33:27;;;;;;;1999.90;999.90;;;;;;;17.83;100.00;95626.00;5134134;27;20195;-62
2021/06/13 09:35:57;;;;;;;1999.90;999.90;;;;;;;18.07;100.00;95617.25;5134375;27;20194;-62
2021/06/13 09:38:28;;;;;;;1999.90;999.90;;;;;;;18.18;100.00;95615.63;5133879;27;20232;-62
2021/06/13 09:40:59;;;;;;;1999.90;999.90;;;;;;;18.20;100.00;95620.56;5134410;27;20570;-64
2021/06/13 09:43:30;;;;;;;1999.90;999.90;;;;;;;18.22;100.00;95607.84;5134126;27;20199;-63
2021/06/13 09:46:01;;;;;;;1999.90;999.90;;;;;;;18.25;100.00;95613.19;5134030;27;20191;-63
2021/06/13 09:48:29;;;;;;;1999.90;999.90;;;;;;;18.19;100.00;95611.13;5134068;27;20204;-62
2021/06/13 09:50:58;;;;;;;1999.90;999.90;;;;;;;18.11;100.00;95606.81;5133687;27;20587;-63
2021/06/13 09:53:33;;;;;;;1999.90;999.90;;;;;;;18.27;100.00;95610.97;5133703;27;20786;-62
2021/06/13 09:56:10;;;;;;;1999.90;999.90;;;;;;;18.28;100.00;95617.75;5133808;27;20201;-63
2021/06/13 09:58:51;;;;;;;1999.90;999.90;;;;;;;18.04;100.00;95617.91;5133618;27;20230;-63
2021/06/13 10:01:19;;;;;;;1999.90;999.90;;;;;;;18.08;100.00;95624.78;5133748;27;20199;-62
2021/06/13 10:03:48;;;;;;;1999.90;999.90;;;;;;;18.02;100.00;95631.41;5133545;27;20281;-63
2021/06/13 10:06:17;;;;;;;1999.90;999.90;;;;;;;18.11;100.00;95623.34;5134128;27;20228;-63
2021/06/13 10:08:47;;;;;;;1999.90;999.90;;;;;;;17.99;100.00;95626.81;5133464;27;20202;-62
2021/06/13 10:11:15;;;;;;;1999.90;999.90;;;;;;;17.94;100.00;95621.03;5133406;27;20296;-63
2021/06/13 10:13:49;;;;;;;1999.90;999.90;;;;;;;17.71;100.00;95630.56;5133348;27;20195;-63
2021/06/13 10:16:34;;;;;;;1999.90;999.90;;;;;;;17.77;100.00;95630.00;5133425;27;20241;-63
2021/06/13 10:19:04;;;;;;;1999.90;999.90;;;;;;;17.85;100.00;95621.19;5133343;27;20257;-63
2021/06/13 10:21:35;;;;;;;1999.90;999.90;;;;;;;17.85;100.00;95628.31;5133365;27;20190;-63
2021/06/13 10:24:06;;;;;;;1999.90;999.90;;;;;;;17.89;100.00;95637.81;5133059;27;20775;-63
2021/06/13 10:26:34;;;;;;;1999.90;999.90;;;;;;;17.80;100.00;95633.78;5132986;27;20263;-63
2021/06/13 10:29:03;;;;;;;1999.90;999.90;;;;;;;17.86;100.00;95625.34;5132903;27;20198;-63
2021/06/13 10:31:30;;;;;;;1999.90;999.90;;;;;;;17.83;100.00;95635.78;5133492;27;20190;-63
2021/06/13 10:33:58;;;;;;;1999.90;999.90;;;;;;;17.88;100.00;95635.53;5133081;27;20200;-63
2021/06/13 10:36:27;;;;;;;1999.90;999.90;;;;;;;17.96;100.00;95624.84;5132978;27;20652;-63
2021/06/13 10:38:54;;;;;;;1999.90;999.90;;;;;;;18.05;100.00;95622.06;5132802;27;20226;-63
2021/06/13 10:41:23;;;;;;;1999.90;999.90;;;;;;;18.10;100.00;95621.81;5132515;27;20712;-63
2021/06/13 10:43:50;;;;;;;1999.90;999.90;;;;;;;18.04;100.00;95631.81;5132173;27;20194;-62
2021/06/13 10:46:20;;;;;;;1999.90;999.90;;;;;;;18.22;100.00;95628.88;5132659;27;20209;-63
2021/06/13 10:48:51;;;;;;;1999.90;999.90;;;;;;;18.18;100.00;95628.03;5132866;27;20195;-63
2021/06/13 10:51:30;;;;;;;1999.90;999.90;;;;;;;18.29;100.00;95616.66;5132820;27;20222;-63
2021/06/13 10:54:32;;;;;;;1999.90;999.90;;;;;;;18.46;100.00;95612.94;5132440;27;20200;-63
2021/06/13 10:57:37;;;;;;;1999.90;999.90;;;;;;;18.65;100.00;95620.94;5132765;27;20672;-63
2021/06/13 11:00:30;;;;;;;1999.90;999.90;;;;;;;18.81;100.00;95611.16;5132394;27;20668;-63